Terminal Aerodrome Forecast
Issued by NWS

Home | Current Version | Previous Version | Text Only | Print | Product List | Glossary On
Versions: 1 2 3 4 5 6 7 8 9 10 11 12 13 14 15
000
FTAK31 PAJN 281122
TAFAKT
TAF
PAKT 281122Z 2812/2912 14015G30KT 5SM RA BR BKN006 OVC015
      WS020/18030KT
     FM281400 14014G25KT 3SM RA BR BKN010 OVC015 WS020/17040KT
     FM281700 14020G34KT 3SM RA BR BKN010 OVC015 WS020/16045KT
     FM290100 15015G22KT 5SM -RA BR BKN015 OVC025 WS020/14045KT
      AMD LTD TO CLD VIS AND WIND 2812/2815=

USA.gov is the U.S. government's official web portal to all federal, state and local government web resources and services.